Time;durP1;ratioP1;P1;durP2;ratioP2;P2;SDS_P1;SDS_P2;PMS_P1;PMS_P2;Temp;Humidity;BMP_temperature;BMP_pressure;BME280_temperature;BME280_humidity;BME280_pressure;Samples;Min_cycle;Max_cycle;Signal;HPM_P1;HPM_P2
2023/07/24 00:01:51;;;;;;;3.50;2.70;;;18.80;99.90;;;;;;5076076;28;20554;-81
2023/07/24 00:04:17;;;;;;;3.80;2.67;;;18.80;99.90;;;;;;5083257;28;20520;-82
2023/07/24 00:06:44;;;;;;;3.17;2.83;;;18.80;99.90;;;;;;5074634;28;20484;-81
2023/07/24 00:09:11;;;;;;;3.53;2.80;;;18.70;99.90;;;;;;5069276;28;20486;-81
2023/07/24 00:11:39;;;;;;;5.80;2.60;;;18.70;99.90;;;;;;5084466;28;20565;-81
2023/07/24 00:14:06;;;;;;;4.07;2.97;;;18.70;99.90;;;;;;5084888;28;20537;-82
2023/07/24 00:16:33;;;;;;;7.20;3.50;;;18.80;99.90;;;;;;5077924;28;20446;-82
2023/07/24 00:19:00;;;;;;;5.80;3.00;;;18.80;99.90;;;;;;5094360;28;20430;-80
2023/07/24 00:21:26;;;;;;;5.03;2.60;;;18.80;99.90;;;;;;5088066;28;20489;-81
2023/07/24 00:23:53;;;;;;;5.00;3.20;;;18.70;99.90;;;;;;5083468;28;20506;-81
2023/07/24 00:26:20;;;;;;;4.10;3.03;;;18.80;99.90;;;;;;5082303;28;20481;-81
2023/07/24 00:28:48;;;;;;;3.27;2.63;;;18.70;99.90;;;;;;5082661;28;20514;-81
2023/07/24 00:31:15;;;;;;;4.17;2.60;;;18.70;99.90;;;;;;5082996;28;20463;-81
2023/07/24 00:33:42;;;;;;;4.20;2.80;;;18.70;99.90;;;;;;5082307;28;20457;-82
2023/07/24 00:36:09;;;;;;;6.00;3.57;;;18.70;99.90;;;;;;5081296;28;20493;-81
2023/07/24 00:38:36;;;;;;;5.77;3.30;;;18.70;99.90;;;;;;5081823;28;20542;-81
2023/07/24 00:41:03;;;;;;;4.80;3.60;;;18.60;99.90;;;;;;5081463;28;20483;-81
2023/07/24 00:43:29;;;;;;;3.87;2.90;;;18.60;99.90;;;;;;5083141;28;20457;-82
2023/07/24 00:45:58;;;;;;;4.50;2.80;;;18.70;99.90;;;;;;5082666;28;20454;-81
2023/07/24 00:48:25;;;;;;;6.47;3.30;;;18.60;99.90;;;;;;5082492;28;20490;-82
2023/07/24 00:50:52;;;;;;;4.57;2.90;;;18.70;99.90;;;;;;5081153;28;20477;-81
2023/07/24 00:53:20;;;;;;;4.63;2.90;;;18.70;99.90;;;;;;5082253;28;20465;-82
2023/07/24 00:55:47;;;;;;;4.50;2.80;;;18.70;99.90;;;;;;5081215;28;20469;-81
2023/07/24 00:58:15;;;;;;;6.13;2.93;;;18.70;99.90;;;;;;5082814;28;20447;-80
2023/07/24 01:00:42;;;;;;;5.20;3.30;;;18.70;99.90;;;;;;5082555;28;20482;-82
2023/07/24 01:03:12;;;;;;;11.60;2.77;;;18.70;99.90;;;;;;5082251;28;20549;-81
2023/07/24 01:05:40;;;;;;;6.23;2.70;;;18.70;99.90;;;;;;5082009;28;20455;-82
2023/07/24 01:08:07;;;;;;;5.67;2.90;;;18.70;99.90;;;;;;5082554;28;20471;-81
2023/07/24 01:10:34;;;;;;;3.90;3.23;;;18.70;99.90;;;;;;5082520;28;20451;-82
2023/07/24 01:13:06;;;;;;;4.93;2.97;;;18.80;99.90;;;;;;5082250;28;20473;-82
2023/07/24 01:15:35;;;;;;;2.80;2.50;;;18.70;99.90;;;;;;5060528;28;20443;-82
2023/07/24 01:18:07;;;;;;;5.10;3.47;;;18.70;99.90;;;;;;5065833;28;20522;-82
2023/07/24 01:20:37;;;;;;;5.40;3.50;;;18.70;99.90;;;;;;5081509;28;20435;-81
2023/07/24 01:23:24;;;;;;;4.70;3.47;;;18.70;99.90;;;;;;5081126;28;20478;-83
2023/07/24 01:25:56;;;;;;;6.13;2.90;;;18.70;99.90;;;;;;5079876;28;20462;-82
2023/07/24 01:28:23;;;;;;;3.63;2.77;;;18.70;99.90;;;;;;5080119;28;20496;-83
2023/07/24 01:30:51;;;;;;;4.87;3.00;;;18.70;99.90;;;;;;5079411;28;20471;-82
2023/07/24 01:33:18;;;;;;;3.67;3.07;;;18.70;99.90;;;;;;5079398;28;20455;-82
2023/07/24 01:35:45;;;;;;;3.40;3.00;;;18.70;99.90;;;;;;5078949;28;20951;-82
2023/07/24 01:38:14;;;;;;;4.77;3.03;;;18.70;99.90;;;;;;5079679;28;20439;-80
2023/07/24 01:40:41;;;;;;;4.47;3.10;;;18.70;99.90;;;;;;5078608;28;20549;-82
2023/07/24 01:43:09;;;;;;;5.10;3.70;;;18.70;99.90;;;;;;5079198;28;20439;-82
2023/07/24 01:45:36;;;;;;;3.87;2.60;;;18.60;99.90;;;;;;5078368;28;20443;-81
2023/07/24 01:48:05;;;;;;;3.53;2.80;;;18.60;99.90;;;;;;5079655;28;20483;-82
2023/07/24 01:50:31;;;;;;;3.97;2.47;;;18.60;99.90;;;;;;5079681;28;20451;-82
2023/07/24 01:52:58;;;;;;;3.53;2.77;;;18.50;99.90;;;;;;5076202;28;20553;-81
2023/07/24 01:55:25;;;;;;;4.20;3.23;;;18.50;99.90;;;;;;5079398;28;20930;-82
2023/07/24 01:57:52;;;;;;;4.90;3.23;;;18.60;99.90;;;;;;5079482;28;20455;-82
2023/07/24 02:00:20;;;;;;;3.50;3.10;;;18.50;99.90;;;;;;5080086;28;20825;-81
2023/07/24 02:02:47;;;;;;;3.47;3.17;;;18.50;99.90;;;;;;5078915;28;20848;-82
2023/07/24 02:05:14;;;;;;;4.37;3.30;;;18.50;99.90;;;;;;5077341;28;20538;-82
2023/07/24 02:07:41;;;;;;;3.90;2.93;;;18.50;99.90;;;;;;5079025;28;20566;-82
2023/07/24 02:10:09;;;;;;;3.40;2.73;;;18.50;99.90;;;;;;5079537;28;20533;-80
2023/07/24 02:12:35;;;;;;;6.30;2.90;;;18.40;99.90;;;;;;5079034;28;20478;-82
2023/07/24 02:15:03;;;;;;;4.73;2.93;;;18.40;99.90;;;;;;5079923;28;20451;-83
2023/07/24 02:17:31;;;;;;;4.20;2.70;;;18.50;99.90;;;;;;5078067;28;20462;-83
2023/07/24 02:19:58;;;;;;;3.50;3.07;;;18.40;99.90;;;;;;5079672;28;20546;-82
2023/07/24 02:22:25;;;;;;;7.77;2.93;;;18.40;99.90;;;;;;5079288;28;20497;-83
2023/07/24 02:24:52;;;;;;;4.87;3.00;;;18.40;99.90;;;;;;5082506;28;20454;-83
2023/07/24 02:27:27;;;;;;;3.93;3.07;;;18.40;99.90;;;;;;5082335;28;20569;-83
2023/07/24 02:29:54;;;;;;;5.30;3.20;;;18.40;99.90;;;;;;5079381;28;20479;-83
2023/07/24 02:32:22;;;;;;;4.80;2.93;;;18.40;99.90;;;;;;5077970;28;20529;-83
2023/07/24 02:34:50;;;;;;;4.13;2.60;;;18.40;99.90;;;;;;5079143;28;20876;-83
2023/07/24 02:37:17;;;;;;;10.57;3.03;;;18.40;99.90;;;;;;5078194;28;20438;-83
2023/07/24 02:39:44;;;;;;;4.20;2.57;;;18.40;99.90;;;;;;5079033;28;20450;-83
2023/07/24 02:42:10;;;;;;;3.27;2.37;;;18.40;99.90;;;;;;5076944;28;20987;-81
2023/07/24 02:44:37;;;;;;;3.43;3.00;;;18.40;99.90;;;;;;5077520;28;20549;-83
2023/07/24 02:47:05;;;;;;;5.27;3.50;;;18.40;99.90;;;;;;5076995;28;20509;-82
2023/07/24 02:49:31;;;;;;;3.67;3.33;;;18.40;99.90;;;;;;5078092;28;20879;-83
2023/07/24 02:51:59;;;;;;;3.63;3.23;;;18.50;99.90;;;;;;5077320;28;20478;-83
2023/07/24 02:54:27;;;;;;;4.87;3.27;;;18.50;99.90;;;;;;5078230;28;20454;-83
2023/07/24 02:56:53;;;;;;;4.60;3.80;;;18.50;99.90;;;;;;5076724;28;20538;-83
2023/07/24 02:59:20;;;;;;;4.80;3.57;;;18.50;99.90;;;;;;5077962;28;20822;-82
2023/07/24 03:01:47;;;;;;;4.73;3.57;;;18.60;99.90;;;;;;5077350;28;20530;-82
2023/07/24 03:04:14;;;;;;;5.93;4.10;;;18.60;99.90;;;;;;5075695;28;20542;-82
2023/07/24 03:06:41;;;;;;;7.30;4.17;;;18.50;99.90;;;;;;5077454;28;20515;-82
2023/07/24 03:09:09;;;;;;;4.73;3.90;;;18.60;99.90;;;;;;5077063;28;20491;-82
2023/07/24 03:11:35;;;;;;;5.87;4.27;;;18.60;99.90;;;;;;5077372;28;20471;-82
2023/07/24 03:14:02;;;;;;;4.77;3.27;;;18.60;99.90;;;;;;5076437;28;20451;-82
2023/07/24 03:16:29;;;;;;;8.63;3.47;;;18.70;99.90;;;;;;5076355;28;21004;-82
2023/07/24 03:18:56;;;;;;;5.33;3.87;;;18.70;99.90;;;;;;5075783;28;20519;-81
2023/07/24 03:21:23;;;;;;;4.23;3.83;;;18.70;99.90;;;;;;5075676;28;20481;-79
2023/07/24 03:23:49;;;;;;;4.20;3.80;;;18.70;99.90;;;;;;5072189;28;20982;-80
2023/07/24 03:26:17;;;;;;;5.73;4.50;;;18.70;99.90;;;;;;5072950;28;20463;-80
2023/07/24 03:28:44;;;;;;;4.37;3.07;;;18.80;99.90;;;;;;5075326;28;20487;-82
2023/07/24 03:31:11;;;;;;;6.57;3.70;;;18.80;99.90;;;;;;5076035;28;20579;-81
2023/07/24 03:33:38;;;;;;;4.97;4.47;;;18.80;99.90;;;;;;5074834;28;20465;-82
2023/07/24 03:36:05;;;;;;;6.53;4.00;;;18.80;99.90;;;;;;5075395;28;20451;-82
2023/07/24 03:38:32;;;;;;;6.23;4.13;;;18.80;99.90;;;;;;5074957;28;20451;-82
2023/07/24 03:40:59;;;;;;;5.90;4.43;;;18.80;99.90;;;;;;5074489;28;20480;-81
2023/07/24 03:43:27;;;;;;;7.07;4.17;;;18.60;99.90;;;;;;5073926;28;20541;-79
2023/07/24 03:45:54;;;;;;;7.67;4.57;;;18.70;99.90;;;;;;5074295;28;20546;-81
2023/07/24 03:48:20;;;;;;;7.50;4.13;;;18.70;99.90;;;;;;5075814;28;20920;-80
2023/07/24 03:50:47;;;;;;;11.13;4.53;;;18.70;99.90;;;;;;5075119;28;20470;-82
2023/07/24 03:53:14;;;;;;;7.13;5.60;;;18.70;99.90;;;;;;5075107;28;20442;-82
2023/07/24 03:55:41;;;;;;;6.00;4.43;;;18.70;99.90;;;;;;5074463;28;20943;-79
2023/07/24 03:58:07;;;;;;;6.90;4.67;;;18.70;99.90;;;;;;5075477;28;20645;-81
2023/07/24 04:00:36;;;;;;;6.00;4.70;;;18.80;99.90;;;;;;5074909;28;20451;-80
2023/07/24 04:03:02;;;;;;;6.20;4.60;;;18.80;99.90;;;;;;5075675;28;20525;-80
2023/07/24 04:05:29;;;;;;;4.90;4.10;;;18.80;99.90;;;;;;5075580;28;20467;-80
2023/07/24 04:07:56;;;;;;;6.20;4.80;;;18.80;99.90;;;;;;5076397;28;21136;-80
2023/07/24 04:10:23;;;;;;;6.10;4.47;;;18.80;99.90;;;;;;5076346;28;20534;-79
2023/07/24 04:12:50;;;;;;;6.13;4.20;;;18.90;99.90;;;;;;5076069;28;20507;-80
2023/07/24 04:15:17;;;;;;;6.30;4.40;;;18.90;99.90;;;;;;5075531;28;20459;-79
2023/07/24 04:17:45;;;;;;;5.40;4.63;;;18.80;99.90;;;;;;5075486;28;20451;-79
2023/07/24 04:20:12;;;;;;;6.30;5.13;;;18.80;99.90;;;;;;5070661;28;20451;-81
2023/07/24 04:22:39;;;;;;;7.57;5.30;;;18.80;99.90;;;;;;5070588;28;20474;-81
2023/07/24 04:25:08;;;;;;;5.00;4.43;;;18.80;99.90;;;;;;5074985;28;20446;-76
2023/07/24 04:27:35;;;;;;;5.43;4.83;;;18.90;99.90;;;;;;5078144;28;20478;-80
2023/07/24 04:30:02;;;;;;;4.40;3.67;;;18.90;99.90;;;;;;5079877;28;20477;-81
2023/07/24 04:32:28;;;;;;;6.40;4.90;;;18.80;99.90;;;;;;5085914;28;20477;-78
2023/07/24 04:34:57;;;;;;;5.47;4.20;;;18.80;99.90;;;;;;5080861;28;20538;-79
2023/07/24 04:37:23;;;;;;;5.73;4.77;;;18.90;99.90;;;;;;5079818;28;20443;-79
2023/07/24 04:39:50;;;;;;;9.93;5.00;;;18.80;99.90;;;;;;5079651;28;21005;-81
2023/07/24 04:42:17;;;;;;;6.13;4.17;;;18.80;99.90;;;;;;5077823;28;20573;-82
2023/07/24 04:44:44;;;;;;;5.63;4.43;;;18.80;99.90;;;;;;5079387;28;20458;-82
2023/07/24 04:47:10;;;;;;;5.10;4.23;;;18.80;99.90;;;;;;5077834;28;20443;-82
2023/07/24 04:49:37;;;;;;;7.83;4.70;;;18.80;99.90;;;;;;5080082;28;20490;-83
2023/07/24 04:52:06;;;;;;;5.33;4.57;;;18.70;99.90;;;;;;5078399;28;20479;-82
2023/07/24 04:54:34;;;;;;;6.70;5.03;;;18.80;99.90;;;;;;5080168;28;20474;-80
2023/07/24 04:57:01;;;;;;;5.50;4.50;;;18.80;99.90;;;;;;5078260;28;20538;-82
2023/07/24 04:59:28;;;;;;;4.77;4.13;;;18.90;99.90;;;;;;5078499;28;20510;-82
2023/07/24 05:01:54;;;;;;;7.50;4.60;;;18.90;99.90;;;;;;5078405;28;20849;-80
2023/07/24 05:04:21;;;;;;;6.93;5.40;;;18.90;99.90;;;;;;5079731;28;20443;-82
2023/07/24 05:06:48;;;;;;;8.77;4.70;;;18.80;99.90;;;;;;5079934;28;20451;-82
2023/07/24 05:09:16;;;;;;;7.20;4.20;;;18.80;99.90;;;;;;5065665;28;20487;-77
2023/07/24 05:11:44;;;;;;;5.47;4.80;;;18.80;99.90;;;;;;5058543;28;20562;-82
2023/07/24 05:14:11;;;;;;;7.73;4.67;;;18.80;99.90;;;;;;5077666;28;20455;-82
2023/07/24 05:16:38;;;;;;;5.53;4.27;;;18.80;99.90;;;;;;5076467;28;20443;-81
2023/07/24 05:19:05;;;;;;;6.77;4.77;;;18.90;99.90;;;;;;5049444;28;20464;-78
2023/07/24 05:21:32;;;;;;;6.13;4.70;;;18.90;99.90;;;;;;5071930;28;21206;-79
2023/07/24 05:23:58;;;;;;;6.77;4.80;;;18.90;99.90;;;;;;5076698;28;20485;-81
2023/07/24 05:26:27;;;;;;;9.93;5.00;;;19.00;99.90;;;;;;5077769;28;20477;-82
2023/07/24 05:28:53;;;;;;;7.10;4.90;;;19.00;99.90;;;;;;5070076;28;22115;-79
2023/07/24 05:31:20;;;;;;;4.57;4.03;;;19.10;99.90;;;;;;5051849;28;20820;-82
2023/07/24 05:33:47;;;;;;;4.87;4.37;;;19.10;99.90;;;;;;5078360;28;20447;-83
2023/07/24 05:36:14;;;;;;;4.93;4.30;;;19.10;99.90;;;;;;5078253;28;20527;-81
2023/07/24 05:38:40;;;;;;;6.13;4.80;;;19.00;99.90;;;;;;5080527;28;20450;-81
2023/07/24 05:43:37;;;;;;;6.87;4.83;;;18.90;99.90;;;;;;5040652;28;20475;-79
2023/07/24 05:46:04;;;;;;;7.07;5.03;;;19.00;99.90;;;;;;5049504;28;20482;-79
2023/07/24 05:48:30;;;;;;;5.80;5.00;;;19.00;99.90;;;;;;5053268;28;20484;-81
2023/07/24 05:50:57;;;;;;;6.60;5.30;;;19.00;99.90;;;;;;5056228;28;20859;-79
2023/07/24 05:53:24;;;;;;;8.80;5.33;;;18.90;99.90;;;;;;5057263;28;20503;-80
2023/07/24 05:56:00;;;;;;;7.03;4.73;;;18.90;99.90;;;;;;5056264;28;20483;-80
2023/07/24 05:58:27;;;;;;;9.23;6.13;;;18.90;99.90;;;;;;5038972;28;20471;-80
2023/07/24 06:00:56;;;;;;;7.60;4.50;;;19.00;99.90;;;;;;5040189;28;20874;-82
2023/07/24 06:03:23;;;;;;;7.23;5.23;;;19.00;99.90;;;;;;5054996;28;20480;-81
2023/07/24 06:05:53;;;;;;;6.50;4.60;;;19.10;99.90;;;;;;5053017;28;20451;-82
2023/07/24 06:08:20;;;;;;;9.57;5.07;;;19.20;99.90;;;;;;5047841;28;20598;-82
2023/07/24 06:10:48;;;;;;;7.83;4.40;;;19.20;99.90;;;;;;5053855;28;20543;-82
2023/07/24 06:13:15;;;;;;;7.03;4.80;;;19.20;99.90;;;;;;5057341;28;20841;-82
2023/07/24 06:15:42;;;;;;;6.30;5.03;;;19.20;99.90;;;;;;5049442;28;20457;-81
2023/07/24 06:18:10;;;;;;;6.63;4.17;;;19.30;99.90;;;;;;5037638;28;20449;-81
2023/07/24 06:20:37;;;;;;;5.60;4.50;;;19.20;99.90;;;;;;5052384;28;20456;-81
2023/07/24 06:23:04;;;;;;;6.13;4.93;;;19.30;99.90;;;;;;5058073;28;20555;-82
2023/07/24 06:25:31;;;;;;;7.20;4.97;;;19.30;99.90;;;;;;5055722;28;20464;-79
2023/07/24 06:27:58;;;;;;;6.67;5.00;;;19.30;99.90;;;;;;5062048;28;20465;-80
2023/07/24 06:30:25;;;;;;;9.53;5.73;;;19.40;99.90;;;;;;5047064;28;20451;-80
2023/07/24 06:32:52;;;;;;;4.83;4.33;;;19.40;99.90;;;;;;5051993;28;20525;-78
2023/07/24 06:35:20;;;;;;;6.30;4.50;;;19.50;99.90;;;;;;5057377;28;20952;-80
2023/07/24 06:37:47;;;;;;;5.37;3.90;;;19.50;99.90;;;;;;5057171;28;20523;-81
2023/07/24 06:40:14;;;;;;;4.70;3.73;;;19.50;99.90;;;;;;5058140;28;21004;-81
2023/07/24 06:42:41;;;;;;;5.43;3.97;;;19.50;99.90;;;;;;5055456;28;20498;-78
2023/07/24 06:45:10;;;;;;;8.10;4.67;;;19.50;99.90;;;;;;5047937;28;20991;-81
2023/07/24 06:47:37;;;;;;;5.10;4.53;;;19.50;99.90;;;;;;5064843;28;20443;-78
2023/07/24 06:50:04;;;;;;;7.90;5.30;;;19.50;99.90;;;;;;5061753;28;20523;-81
2023/07/24 06:52:32;;;;;;;6.37;4.63;;;19.50;99.90;;;;;;5059645;28;20471;-80
2023/07/24 06:54:59;;;;;;;7.13;4.83;;;19.50;99.90;;;;;;5062909;28;20480;-81
2023/07/24 06:57:26;;;;;;;5.60;4.57;;;19.60;99.90;;;;;;5062024;28;20490;-79
2023/07/24 06:59:53;;;;;;;5.60;4.70;;;19.80;99.90;;;;;;5053027;28;20448;-79
2023/07/24 07:02:20;;;;;;;5.50;3.87;;;19.80;99.90;;;;;;5051653;28;21152;-81
2023/07/24 07:04:46;;;;;;;4.87;3.90;;;19.90;99.90;;;;;;5058946;28;20535;-81
2023/07/24 07:07:13;;;;;;;7.40;4.93;;;19.80;99.90;;;;;;5058491;28;20458;-81
2023/07/24 07:09:42;;;;;;;5.37;4.43;;;19.90;99.90;;;;;;5059403;28;20490;-81
2023/07/24 07:12:09;;;;;;;7.90;4.23;;;20.10;99.90;;;;;;5041934;28;20552;-81
2023/07/24 07:14:36;;;;;;;7.47;5.57;;;20.10;99.90;;;;;;5036329;28;20892;-82
2023/07/24 07:17:02;;;;;;;7.50;4.73;;;20.10;99.90;;;;;;5039262;28;20456;-80
2023/07/24 07:19:29;;;;;;;5.67;4.40;;;20.00;99.90;;;;;;5039846;28;20463;-80
2023/07/24 07:21:56;;;;;;;5.83;4.07;;;20.00;99.90;;;;;;5039681;28;20478;-80
2023/07/24 07:24:23;;;;;;;8.30;4.30;;;20.00;99.90;;;;;;5052746;28;20454;-80
2023/07/24 07:26:51;;;;;;;9.33;4.47;;;19.90;99.90;;;;;;5038182;28;20456;-80
2023/07/24 07:29:18;;;;;;;4.63;3.50;;;19.80;99.90;;;;;;5044025;28;20511;-81
2023/07/24 07:31:45;;;;;;;8.07;4.23;;;19.90;99.90;;;;;;5052546;28;20559;-82
2023/07/24 07:34:11;;;;;;;6.60;4.60;;;20.00;99.90;;;;;;5052240;28;20547;-82
2023/07/24 07:36:38;;;;;;;4.43;3.93;;;20.00;99.90;;;;;;5036736;28;21111;-81
2023/07/24 07:39:05;;;;;;;6.00;4.10;;;20.00;99.90;;;;;;5041312;28;20479;-82
2023/07/24 07:41:32;;;;;;;6.43;4.13;;;20.10;99.90;;;;;;5050228;28;20566;-78
2023/07/24 07:44:00;;;;;;;5.90;3.40;;;20.10;99.90;;;;;;5049182;28;20470;-81
2023/07/24 07:46:27;;;;;;;3.90;3.40;;;20.10;99.90;;;;;;5043762;28;20469;-80
2023/07/24 07:48:54;;;;;;;6.23;4.13;;;20.10;99.90;;;;;;5055608;28;20592;-81
2023/07/24 07:51:20;;;;;;;5.57;3.80;;;20.10;99.90;;;;;;5056604;28;20478;-80
2023/07/24 07:53:47;;;;;;;6.50;4.20;;;20.10;99.90;;;;;;5056432;28;20457;-81
2023/07/24 07:56:14;;;;;;;5.37;3.70;;;20.10;99.90;;;;;;5045252;28;20483;-80
2023/07/24 07:58:41;;;;;;;7.13;4.00;;;20.10;99.90;;;;;;5045336;28;20538;-80
2023/07/24 08:01:09;;;;;;;5.80;4.40;;;20.20;99.90;;;;;;5044256;28;20440;-80
2023/07/24 08:03:36;;;;;;;5.20;4.00;;;20.20;99.90;;;;;;5054916;28;20550;-81
2023/07/24 08:06:03;;;;;;;5.33;3.40;;;20.40;99.90;;;;;;5054101;28;21201;-80
2023/07/24 08:08:30;;;;;;;5.70;4.13;;;20.60;99.90;;;;;;5053033;28;20479;-80
2023/07/24 08:10:57;;;;;;;5.10;3.40;;;20.60;99.90;;;;;;5049952;28;20452;-82
2023/07/24 08:13:23;;;;;;;5.97;3.77;;;20.70;99.90;;;;;;5055960;28;20478;-81
2023/07/24 08:15:51;;;;;;;5.60;3.80;;;20.80;99.90;;;;;;5055000;28;20578;-81
2023/07/24 08:18:19;;;;;;;5.77;3.63;;;20.80;99.90;;;;;;5055587;28;20451;-81
2023/07/24 08:20:46;;;;;;;4.73;3.30;;;20.80;99.90;;;;;;5055144;28;20539;-80
2023/07/24 08:23:12;;;;;;;4.93;3.90;;;20.90;99.90;;;;;;5055648;28;20503;-82
2023/07/24 08:25:39;;;;;;;4.40;3.20;;;21.00;99.90;;;;;;5053404;28;20542;-81
2023/07/24 08:28:06;;;;;;;4.37;3.13;;;21.10;99.90;;;;;;5056143;28;20558;-82
2023/07/24 08:30:33;;;;;;;5.70;3.87;;;21.20;99.90;;;;;;5057012;28;20493;-82
2023/07/24 08:33:00;;;;;;;4.80;3.50;;;21.10;99.90;;;;;;5056518;28;20566;-83
2023/07/24 08:35:30;;;;;;;6.03;3.67;;;21.20;99.90;;;;;;5056000;28;20477;-82
2023/07/24 08:37:57;;;;;;;6.20;3.07;;;21.20;99.90;;;;;;5051225;28;20483;-82
2023/07/24 08:40:24;;;;;;;4.30;3.37;;;21.20;99.90;;;;;;5053498;28;20448;-80
2023/07/24 08:42:51;;;;;;;8.90;4.23;;;21.20;99.90;;;;;;5056868;28;20554;-82
2023/07/24 08:45:19;;;;;;;4.20;3.10;;;21.20;99.90;;;;;;5056972;28;20448;-81
2023/07/24 08:47:48;;;;;;;4.33;3.30;;;21.00;99.90;;;;;;5051406;28;20466;-82
2023/07/24 08:50:16;;;;;;;7.00;4.23;;;21.00;99.90;;;;;;5053543;28;20827;-82
2023/07/24 08:52:46;;;;;;;5.73;3.90;;;20.90;99.90;;;;;;5057094;28;20546;-83
2023/07/24 08:55:13;;;;;;;4.97;3.10;;;20.90;99.90;;;;;;5057029;28;20570;-82
2023/07/24 08:57:40;;;;;;;5.47;3.67;;;20.70;99.90;;;;;;5047342;28;20462;-81
2023/07/24 09:00:08;;;;;;;4.57;4.07;;;20.70;99.90;;;;;;5050164;28;20440;-82
2023/07/24 09:02:36;;;;;;;4.33;3.40;;;20.50;99.90;;;;;;5055182;28;20474;-82
2023/07/24 09:05:03;;;;;;;4.20;3.70;;;20.60;99.90;;;;;;5056020;28;20466;-82
2023/07/24 09:07:31;;;;;;;4.90;3.20;;;20.90;99.90;;;;;;5051980;28;20451;-81
2023/07/24 09:09:59;;;;;;;3.80;3.40;;;21.00;99.90;;;;;;5055481;28;20486;-82
2023/07/24 09:12:26;;;;;;;5.57;3.63;;;21.10;99.90;;;;;;5055546;28;20480;-82
2023/07/24 09:15:03;;;;;;;4.20;2.97;;;21.10;99.90;;;;;;5050819;28;20452;-82
2023/07/24 09:17:30;;;;;;;3.87;2.50;;;21.10;99.90;;;;;;5061582;28;20454;-82
2023/07/24 09:19:58;;;;;;;4.10;3.23;;;21.10;99.90;;;;;;5059719;28;20506;-82
2023/07/24 09:22:26;;;;;;;5.50;3.30;;;21.10;99.90;;;;;;5066641;28;20462;-83
2023/07/24 09:24:55;;;;;;;7.93;3.50;;;21.30;99.90;;;;;;5056789;28;20451;-83
2023/07/24 09:27:33;;;;;;;4.10;3.00;;;21.60;99.90;;;;;;5058475;28;20550;-84
2023/07/24 09:30:00;;;;;;;4.70;2.73;;;22.00;99.90;;;;;;5058092;28;20466;-83
2023/07/24 09:32:29;;;;;;;3.90;2.17;;;22.00;99.90;;;;;;5062593;28;20480;-80
2023/07/24 09:34:55;;;;;;;4.10;2.70;;;22.10;99.90;;;;;;5064046;28;20483;-83
2023/07/24 09:37:28;;;;;;;3.00;2.40;;;22.20;99.90;;;;;;5059137;28;20566;-82
2023/07/24 09:39:55;;;;;;;4.10;2.30;;;22.30;99.90;;;;;;5054966;28;20448;-82
2023/07/24 09:42:34;;;;;;;3.43;2.53;;;22.30;99.90;;;;;;5054343;28;20562;-81
2023/07/24 09:45:01;;;;;;;2.53;2.00;;;22.20;58.90;;;;;;5053697;28;20459;-81
2023/07/24 09:47:28;;;;;;;3.67;2.97;;;22.00;99.90;;;;;;5054668;28;20440;-77
2023/07/24 09:49:56;;;;;;;4.70;2.87;;;21.90;99.90;;;;;;5048562;28;20487;-80
2023/07/24 09:52:24;;;;;;;4.00;2.53;;;21.90;99.90;;;;;;5049539;28;20485;-81
2023/07/24 09:55:02;;;;;;;4.63;3.07;;;21.80;99.90;;;;;;5051335;28;20452;-82
2023/07/24 09:57:30;;;;;;;4.50;2.90;;;21.70;99.90;;;;;;5057754;28;20502;-82
2023/07/24 09:59:59;;;;;;;5.83;3.60;;;21.60;99.90;;;;;;5060260;28;20990;-81
2023/07/24 10:02:26;;;;;;;5.00;3.63;;;21.30;99.90;;;;;;5053315;28;20475;-81
2023/07/24 10:04:54;;;;;;;7.80;4.40;;;21.00;99.90;;;;;;5055317;28;20451;-81
2023/07/24 10:07:22;;;;;;;4.87;3.83;;;20.80;99.90;;;;;;5059520;28;20458;-82
2023/07/24 10:09:52;;;;;;;5.77;3.57;;;20.70;99.90;;;;;;5054320;28;20554;-79
2023/07/24 10:12:19;;;;;;;4.63;3.27;;;20.60;99.90;;;;;;5056423;28;20482;-81
2023/07/24 10:14:47;;;;;;;7.33;3.97;;;20.30;99.90;;;;;;5058573;28;20460;-81
2023/07/24 10:17:15;;;;;;;5.50;3.60;;;20.30;99.90;;;;;;5050238;28;20455;-81
2023/07/24 10:19:43;;;;;;;6.57;3.70;;;20.30;99.90;;;;;;5055585;28;20450;-81
2023/07/24 10:22:11;;;;;;;4.97;3.70;;;20.40;99.90;;;;;;5053256;28;20479;-83
2023/07/24 10:24:39;;;;;;;3.87;3.57;;;20.40;99.90;;;;;;5055315;28;20456;-81
2023/07/24 10:27:08;;;;;;;5.13;4.10;;;20.50;99.90;;;;;;5054937;28;20448;-80
2023/07/24 10:29:37;;;;;;;5.30;4.23;;;20.50;99.90;;;;;;5045325;28;20476;-80
2023/07/24 10:32:05;;;;;;;4.10;3.37;;;20.50;99.90;;;;;;5051303;28;20472;-80
2023/07/24 10:34:40;;;;;;;3.90;3.37;;;20.50;99.90;;;;;;5050736;28;21216;-79
2023/07/24 10:37:13;;;;;;;4.20;2.73;;;20.30;99.90;;;;;;5052966;28;20469;-80
2023/07/24 10:39:41;;;;;;;4.60;2.97;;;20.30;99.90;;;;;;5047906;28;20444;-79
2023/07/24 10:42:10;;;;;;;6.10;3.90;;;20.30;99.90;;;;;;5050219;28;20541;-79
2023/07/24 10:44:37;;;;;;;4.63;3.63;;;20.30;99.90;;;;;;5061170;28;20463;-79
2023/07/24 10:47:04;;;;;;;6.70;3.60;;;20.40;99.90;;;;;;5062516;28;20486;-79
2023/07/24 10:49:31;;;;;;;4.83;3.70;;;20.50;99.90;;;;;;5067123;28;20458;-80
2023/07/24 10:52:00;;;;;;;6.33;4.50;;;20.60;99.90;;;;;;5042990;28;20483;-79
2023/07/24 10:54:27;;;;;;;3.93;3.50;;;20.60;99.90;;;;;;5056975;28;20534;-80
2023/07/24 10:57:00;;;;;;;4.40;3.77;;;20.50;99.90;;;;;;5052029;28;20625;-78
2023/07/24 10:59:37;;;;;;;5.43;4.60;;;20.50;99.90;;;;;;5050862;28;20486;-81
2023/07/24 11:02:05;;;;;;;7.53;5.37;;;20.60;99.90;;;;;;5059482;28;20491;-80
2023/07/24 11:04:33;;;;;;;6.33;5.47;;;20.60;99.90;;;;;;5056682;28;20495;-81
2023/07/24 11:07:02;;;;;;;6.33;4.90;;;20.60;99.90;;;;;;5058385;28;20779;-81
2023/07/24 11:09:37;;;;;;;8.73;4.17;;;20.70;99.90;;;;;;5059905;28;20510;-81
2023/07/24 11:12:11;;;;;;;9.87;4.20;;;20.70;99.90;;;;;;5044738;28;20469;-81
2023/07/24 11:14:47;;;;;;;4.40;3.60;;;20.60;99.90;;;;;;5042271;28;20983;-81
2023/07/24 11:17:14;;;;;;;4.40;3.97;;;20.30;99.90;;;;;;5044545;28;20458;-82
2023/07/24 11:19:41;;;;;;;6.00;4.07;;;20.30;99.90;;;;;;5052550;28;20456;-81
2023/07/24 11:22:09;;;;;;;5.67;4.53;;;20.30;99.90;;;;;;5051487;28;20475;-81
2023/07/24 11:24:43;;;;;;;4.93;3.60;;;20.50;99.90;;;;;;5051736;28;20458;-81
2023/07/24 11:27:13;;;;;;;4.90;3.90;;;20.60;99.90;;;;;;5049164;28;20452;-80
2023/07/24 11:29:40;;;;;;;6.10;4.83;;;20.50;99.90;;;;;;5052240;28;20455;-79
2023/07/24 11:32:07;;;;;;;4.13;3.73;;;20.40;99.90;;;;;;5049429;28;20647;-81
2023/07/24 11:34:35;;;;;;;6.20;4.63;;;20.40;99.90;;;;;;5060116;28;20467;-79
2023/07/24 11:37:02;;;;;;;9.27;4.10;;;20.40;99.90;;;;;;5062265;28;20836;-81
2023/07/24 11:39:30;;;;;;;4.97;3.70;;;20.40;99.90;;;;;;5052823;28;21293;-79
2023/07/24 11:44:26;;;;;;;4.67;4.27;;;20.40;99.90;;;;;;5027522;28;20481;-79
2023/07/24 11:46:56;;;;;;;5.63;4.53;;;20.40;99.90;;;;;;5015978;28;20460;-79
2023/07/24 11:49:23;;;;;;;6.40;5.60;;;20.30;99.90;;;;;;5028306;28;20522;-80
2023/07/24 11:51:51;;;;;;;6.00;5.40;;;20.30;99.90;;;;;;5025825;28;21043;-81
2023/07/24 11:54:18;;;;;;;6.13;5.23;;;20.10;99.90;;;;;;5008311;28;20457;-80
2023/07/24 11:56:46;;;;;;;6.43;4.33;;;20.10;99.90;;;;;;5002897;28;20549;-80
2023/07/24 11:59:13;;;;;;;6.70;5.73;;;20.00;99.90;;;;;;5002132;28;21146;-81
2023/07/24 12:01:40;;;;;;;5.70;5.00;;;19.90;99.90;;;;;;5013305;28;20876;-83
2023/07/24 12:04:07;;;;;;;5.67;4.87;;;19.80;99.90;;;;;;5009780;28;20458;-80
2023/07/24 12:06:34;;;;;;;5.40;3.90;;;19.80;99.90;;;;;;5001160;28;20469;-81
2023/07/24 12:09:05;;;;;;;4.97;3.67;;;19.70;99.90;;;;;;5007631;28;20538;-82
2023/07/24 12:11:32;;;;;;;4.83;2.80;;;19.60;99.90;;;;;;5010663;28;20620;-80
2023/07/24 12:14:00;;;;;;;7.13;2.20;;;19.30;99.90;;;;;;5008039;28;20484;-80
2023/07/24 12:16:28;;;;;;;4.17;2.70;;;19.10;99.90;;;;;;5015786;28;20570;-81
2023/07/24 12:18:55;;;;;;;3.40;2.23;;;18.90;99.90;;;;;;5006556;28;20446;-81
2023/07/24 12:21:22;;;;;;;4.20;1.90;;;18.70;99.90;;;;;;5005184;28;20450;-81
2023/07/24 12:23:49;;;;;;;3.70;1.37;;;18.50;99.90;;;;;;5012829;28;20553;-81
2023/07/24 12:26:16;;;;;;;6.63;1.80;;;18.30;99.90;;;;;;4996588;28;20502;-80
2023/07/24 12:28:42;;;;;;;4.07;1.77;;;18.10;99.90;;;;;;5007138;28;20834;-80
2023/07/24 12:31:11;;;;;;;2.43;1.73;;;18.10;99.90;;;;;;5007518;28;20485;-79
2023/07/24 12:33:37;;;;;;;5.27;1.93;;;18.00;99.90;;;;;;5010247;28;20488;-79
2023/07/24 12:36:05;;;;;;;4.10;1.90;;;17.80;99.90;;;;;;5012844;28;21142;-79
2023/07/24 12:38:32;;;;;;;3.10;1.90;;;17.70;99.90;;;;;;5014019;28;20535;-81
2023/07/24 12:40:59;;;;;;;3.80;1.87;;;17.60;99.90;;;;;;5000482;28;20458;-81
2023/07/24 12:43:25;;;;;;;4.57;2.17;;;17.70;99.90;;;;;;5009920;28;20473;-81
2023/07/24 12:45:52;;;;;;;6.90;3.20;;;17.60;99.90;;;;;;5006779;28;20461;-80
2023/07/24 12:48:20;;;;;;;4.07;2.07;;;17.50;99.90;;;;;;5012811;28;20463;-79
2023/07/24 12:50:47;;;;;;;3.10;2.30;;;17.70;99.90;;;;;;5017546;28;20543;-80
2023/07/24 12:53:14;;;;;;;3.13;1.53;;;18.20;99.90;;;;;;5006859;28;20563;-81